CheckWX is a tool to help pilots better visualize weather data.  It is not intended as a substitute for an official pre-flight weather briefing.

02:37:10 UTC

LEMD TAF
Adolfo Suárez Madrid–Barajas Airport
Madrid, Spain
TAF LEMD 222300Z 2300/2406 21006KT 9999 SCT040 TX14/2315Z TN05/2405Z TEMPO 2300/2309 21010KT 4000 RA BKN012 BECMG 2308/2310 24015KT TEMPO 2309/2320 24015G25KT SHRA FEW035TCU TEMPO 2313/2319 24018G32KT PROB40 TEMPO 2313/2320 SHRA SCT020CB PROB30 TEMPO 2314/2320 TS SHGS SCT018CB

Apr-23@
00:00 UTC

Apr-23 @ 00:00 UTC

Apr-23@
08:00 UTC

Apr-23 @ 08:00 UTC

TAF LEMD 222300Z 2300/2406 21006KT 9999 SCT040 TX14/2315Z TN05/2405Z
Wind
  • 210° at 6 KTS
Cloud Levels
  • Scattered at 4,000' AGL

Apr-23@
00:00 UTC

Apr-23 @ 00:00 UTC

Apr-23@
09:00 UTC

Apr-23 @ 09:00 UTC

TEMPO 2300/2309 21010KT 4000 RA BKN012

Temporary

Temporary Changes expected for less than half the time period

Wind
  • 210° at 10 KTS
Conditions
Rain
Cloud Levels
  • Broken at 1,200' AGL

Apr-23@
08:00 UTC

Apr-23 @ 08:00 UTC

Apr-24@
06:00 UTC

Apr-24 @ 06:00 UTC

BECMG 2308/2310 24015KT

Becoming

Becoming Conditions expected by Tue, Apr 23, 2019 @ 10:00 UTC

Wind
  • 240° at 15 KTS
Cloud Levels
  • Scattered at 4,000' AGL

Apr-23@
09:00 UTC

Apr-23 @ 09:00 UTC

Apr-23@
20:00 UTC

Apr-23 @ 20:00 UTC

TEMPO 2309/2320 24015G25KT SHRA FEW035TCU

Temporary

Temporary Changes expected for less than half the time period

Wind
  • 240° at 15 KTS
  • {Gusting to 25 KTS
Conditions
Rain
Cloud Levels
  • Few at 3,500' AGL

Apr-23@
13:00 UTC

Apr-23 @ 13:00 UTC

Apr-23@
19:00 UTC

Apr-23 @ 19:00 UTC

TEMPO 2313/2319 24018G32KT

Temporary

Temporary Changes expected for less than half the time period

Wind
  • 240° at 18 KTS
  • {Gusting to 32 KTS

Apr-23@
13:00 UTC

Apr-23 @ 13:00 UTC

Apr-23@
20:00 UTC

Apr-23 @ 20:00 UTC

PROB40 TEMPO 2313/2320 SHRA SCT020CB

Temporary - 40% Likelihood

Temporary - 40% Likelihood during this time.

Conditions
Rain
Cloud Levels
  • Scattered at 2,000' AGL

Apr-23@
14:00 UTC

Apr-23 @ 14:00 UTC

Apr-23@
20:00 UTC

Apr-23 @ 20:00 UTC

PROB30 TEMPO 2314/2320 TS SHGS SCT018CB

Temporary - 30% Likelihood

Temporary - 30% Likelihood during this time.

Conditions
Thunderstorm, Small hail
Cloud Levels
  • Scattered at 1,800' AGL